Time;durP1;ratioP1;P1;durP2;ratioP2;P2;SDS_P1;SDS_P2;PMS_P1;PMS_P2;Temp;Humidity;BMP_temperature;BMP_pressure;BME280_temperature;BME280_humidity;BME280_pressure;Samples;Min_cycle;Max_cycle;Signal;HPM_P1;HPM_P2
2021/04/12 00:00:05;;;;;;;8.63;6.20;;;;;;;;;;5056093;28;20171;-80
2021/04/12 00:02:48;;;;;;;6.50;5.87;;;;;;;;;;5055959;28;20226;-80
2021/04/12 00:05:37;;;;;;;8.80;6.60;;;;;;;;;;5055714;28;20168;-80
2021/04/12 00:08:09;;;;;;;6.77;6.07;;;;;;;;;;5054343;28;20187;-80
2021/04/12 00:10:35;;;;;;;7.63;6.03;;;;;;;;;;5055530;28;20569;-79
2021/04/12 00:13:05;;;;;;;6.57;5.77;;;;;;;;;;5055548;28;20172;-80
2021/04/12 00:15:34;;;;;;;6.33;5.73;;;;;;;;;;5056128;28;20676;-80
2021/04/12 00:18:04;;;;;;;8.47;5.57;;;;;;;;;;5055193;28;20172;-80
2021/04/12 00:20:33;;;;;;;6.63;5.97;;;;;;;;;;5055953;28;20164;-80
2021/04/12 00:22:58;;;;;;;6.60;5.60;;;;;;;;;;5055341;28;20627;-80
2021/04/12 00:25:31;;;;;;;6.83;5.80;;;;;;;;;;5054994;28;20203;-80
2021/04/12 00:28:17;;;;;;;8.47;5.90;;;;;;;;;;5054577;28;20180;-80
2021/04/12 00:31:11;;;;;;;6.83;6.00;;;;;;;;;;5054666;28;20188;-80
2021/04/12 00:33:41;;;;;;;7.80;6.83;;;;;;;;;;5053006;28;20199;-80
2021/04/12 00:36:21;;;;;;;10.33;6.77;;;;;;;;;;5054819;28;20183;-80
2021/04/12 00:38:46;;;;;;;9.03;6.90;;;;;;;;;;5055061;28;20171;-80
2021/04/12 00:41:12;;;;;;;8.27;6.50;;;;;;;;;;5055156;28;20286;-80
2021/04/12 00:43:56;;;;;;;9.87;6.63;;;;;;;;;;5054923;28;20179;-80
2021/04/12 00:46:27;;;;;;;10.50;6.80;;;;;;;;;;5054260;28;20179;-80
2021/04/12 00:49:00;;;;;;;9.07;6.37;;;;;;;;;;5055267;28;20168;-80
2021/04/12 00:51:25;;;;;;;7.97;6.10;;;;;;;;;;5054755;28;20213;-80
2021/04/12 00:54:06;;;;;;;7.33;6.33;;;;;;;;;;5054425;28;20254;-80
2021/04/12 00:56:37;;;;;;;7.77;6.40;;;;;;;;;;5054966;28;20587;-80
2021/04/12 00:59:12;;;;;;;9.63;6.33;;;;;;;;;;5055170;28;20168;-80
2021/04/12 01:01:37;;;;;;;8.17;6.67;;;;;;;;;;5054303;28;20195;-80
2021/04/12 01:04:26;;;;;;;7.00;5.80;;;;;;;;;;5054586;28;20230;-79
2021/04/12 01:07:00;;;;;;;6.50;5.90;;;;;;;;;;5055401;28;20243;-80
2021/04/12 01:09:44;;;;;;;7.57;6.60;;;;;;;;;;5054091;28;20187;-80
2021/04/12 01:12:24;;;;;;;8.23;6.27;;;;;;;;;;5054909;28;20176;-79
2021/04/12 01:14:59;;;;;;;6.77;6.13;;;;;;;;;;5054141;28;20233;-79
2021/04/12 01:17:36;;;;;;;6.60;6.00;;;;;;;;;;5054387;28;20610;-79
2021/04/12 01:20:02;;;;;;;7.87;6.20;;;;;;;;;;5054858;28;20160;-79
2021/04/12 01:22:46;;;;;;;7.00;5.90;;;;;;;;;;5054728;28;20522;-79
2021/04/12 01:25:17;;;;;;;7.13;5.90;;;;;;;;;;5054021;28;20178;-80
2021/04/12 01:28:01;;;;;;;7.37;6.67;;;;;;;;;;5054149;28;20164;-80
2021/04/12 01:30:40;;;;;;;7.00;6.30;;;;;;;;;;5054647;28;20213;-80
2021/04/12 01:33:17;;;;;;;8.13;6.43;;;;;;;;;;5054431;28;20713;-80
2021/04/12 01:36:01;;;;;;;9.13;6.30;;;;;;;;;;5053792;28;20176;-79
2021/04/12 01:38:59;;;;;;;6.67;6.03;;;;;;;;;;5053969;28;20170;-80
2021/04/12 01:41:30;;;;;;;7.23;6.50;;;;;;;;;;5052776;28;20303;-80
2021/04/12 01:44:01;;;;;;;7.17;6.07;;;;;;;;;;5054247;28;20199;-80
2021/04/12 01:46:30;;;;;;;7.90;6.00;;;;;;;;;;5053212;28;20519;-80
2021/04/12 01:48:56;;;;;;;6.50;5.90;;;;;;;;;;5052550;28;20179;-79
2021/04/12 01:51:24;;;;;;;6.73;6.10;;;;;;;;;;5054092;28;20176;-79
2021/04/12 01:53:55;;;;;;;7.20;6.03;;;;;;;;;;5053846;28;20187;-79
2021/04/12 01:56:20;;;;;;;7.03;6.33;;;;;;;;;;5053573;28;20160;-80
2021/04/12 01:59:01;;;;;;;9.57;6.43;;;;;;;;;;5053651;28;20179;-80
2021/04/12 02:01:26;;;;;;;9.17;6.73;;;;;;;;;;5053854;28;20183;-80
2021/04/12 02:04:10;;;;;;;7.03;6.33;;;;;;;;;;5053990;28;20171;-80
2021/04/12 02:06:39;;;;;;;6.93;6.33;;;;;;;;;;5053724;28;20683;-80
2021/04/12 02:09:29;;;;;;;7.80;6.93;;;;;;;;;;5053592;28;20199;-80
2021/04/12 02:11:59;;;;;;;7.67;6.40;;;;;;;;;;5053478;28;20164;-80
2021/04/12 02:14:30;;;;;;;7.00;6.30;;;;;;;;;;5052970;28;20224;-80
2021/04/12 02:17:13;;;;;;;7.03;6.33;;;;;;;;;;5053645;28;20263;-79
2021/04/12 02:19:53;;;;;;;7.23;6.53;;;;;;;;;;5053293;28;20579;-80
2021/04/12 02:22:21;;;;;;;6.70;6.00;;;;;;;;;;5053690;28;20191;-79
2021/04/12 02:24:49;;;;;;;7.03;6.40;;;;;;;;;;5053944;28;20259;-79
2021/04/12 02:27:14;;;;;;;10.20;6.37;;;;;;;;;;5054335;28;20595;-79
2021/04/12 02:29:49;;;;;;;8.10;6.33;;;;;;;;;;5053239;28;20171;-79
2021/04/12 02:32:20;;;;;;;8.60;6.60;;;;;;;;;;5053399;28;20203;-79
2021/04/12 02:35:06;;;;;;;9.13;6.60;;;;;;;;;;5053512;28;20194;-79
2021/04/12 02:37:42;;;;;;;7.70;6.90;;;;;;;;;;5053793;28;20164;-79
2021/04/12 02:40:07;;;;;;;8.13;6.40;;;;;;;;;;5054086;28;20172;-79
2021/04/12 02:42:36;;;;;;;7.00;5.97;;;;;;;;;;5053681;28;20613;-79
2021/04/12 02:45:04;;;;;;;7.27;6.40;;;;;;;;;;5053449;28;20172;-79
2021/04/12 02:47:32;;;;;;;7.17;6.40;;;;;;;;;;5053358;28;20191;-79
2021/04/12 02:50:06;;;;;;;10.17;6.50;;;;;;;;;;5053299;28;20180;-79
2021/04/12 02:52:50;;;;;;;7.27;6.57;;;;;;;;;;5053354;28;20170;-79
2021/04/12 02:55:18;;;;;;;7.70;6.90;;;;;;;;;;5053460;28;20309;-79
2021/04/12 02:58:06;;;;;;;7.90;6.67;;;;;;;;;;5053303;28;20172;-79
2021/04/12 03:00:35;;;;;;;7.87;6.97;;;;;;;;;;5053895;28;20149;-79
2021/04/12 03:03:15;;;;;;;9.50;7.13;;;;;;;;;;5052813;28;20647;-79
2021/04/12 03:05:59;;;;;;;7.20;6.40;;;;;;;;;;5052861;28;20171;-79
2021/04/12 03:08:36;;;;;;;8.93;6.93;;;;;;;;;;5053434;28;20178;-79
2021/04/12 03:11:10;;;;;;;9.10;7.23;;;;;;;;;;5055788;28;20278;-79
2021/04/12 03:13:42;;;;;;;9.97;6.87;;;;;;;;;;5056414;28;20273;-79
2021/04/12 03:16:13;;;;;;;9.53;6.80;;;;;;;;;;5057240;28;20176;-79
2021/04/12 03:18:56;;;;;;;7.67;6.87;;;;;;;;;;5056920;28;20531;-79
2021/04/12 03:21:40;;;;;;;10.17;7.30;;;;;;;;;;5056434;28;20195;-79
2021/04/12 03:24:11;;;;;;;9.43;7.17;;;;;;;;;;5056546;28;20263;-79
2021/04/12 03:26:55;;;;;;;9.37;7.47;;;;;;;;;;5056983;28;20254;-80
2021/04/12 03:29:23;;;;;;;8.57;7.57;;;;;;;;;;5056440;28;20176;-79
2021/04/12 03:31:58;;;;;;;9.37;7.87;;;;;;;;;;5056223;28;20536;-79
2021/04/12 03:34:33;;;;;;;9.27;7.57;;;;;;;;;;5056163;28;20159;-79
2021/04/12 03:37:17;;;;;;;9.03;7.30;;;;;;;;;;5056177;28;20611;-79
2021/04/12 03:39:52;;;;;;;11.23;7.57;;;;;;;;;;5056436;28;20258;-79
2021/04/12 03:42:36;;;;;;;9.17;7.60;;;;;;;;;;5056369;28;20195;-79
2021/04/12 03:45:08;;;;;;;10.17;7.30;;;;;;;;;;5055845;28;20276;-79
2021/04/12 03:47:40;;;;;;;8.83;7.77;;;;;;;;;;5055770;28;20172;-79
2021/04/12 03:50:05;;;;;;;10.13;7.70;;;;;;;;;;5055859;28;20176;-79
2021/04/12 03:52:47;;;;;;;13.17;8.50;;;;;;;;;;5055722;28;20548;-79
2021/04/12 03:55:31;;;;;;;10.47;8.50;;;;;;;;;;5056444;28;20160;-79
2021/04/12 03:58:34;;;;;;;13.07;8.23;;;;;;;;;;5056365;28;20168;-79
2021/04/12 04:01:18;;;;;;;9.77;7.73;;;;;;;;;;5053316;28;20176;-79
2021/04/12 04:03:48;;;;;;;15.23;8.67;;;;;;;;;;5053932;28;20252;-79
2021/04/12 04:06:19;;;;;;;10.70;8.73;;;;;;;;;;5054676;28;20184;-79
2021/04/12 04:08:50;;;;;;;12.40;8.43;;;;;;;;;;5056015;28;20513;-79
2021/04/12 04:11:36;;;;;;;10.73;8.10;;;;;;;;;;5055606;28;20227;-79
2021/04/12 04:14:01;;;;;;;13.00;9.13;;;;;;;;;;5054902;28;20722;-79
2021/04/12 04:16:49;;;;;;;11.20;9.23;;;;;;;;;;5055522;28;20176;-79
2021/04/12 04:19:21;;;;;;;14.13;9.83;;;;;;;;;;5056172;28;20176;-79
2021/04/12 04:22:03;;;;;;;12.30;8.87;;;;;;;;;;5054134;28;20195;-79
2021/04/12 04:24:43;;;;;;;13.20;10.20;;;;;;;;;;5055449;28;20240;-79
2021/04/12 04:27:09;;;;;;;12.73;10.23;;;;;;;;;;5055557;28;20585;-79
2021/04/12 04:29:48;;;;;;;14.03;10.37;;;;;;;;;;5054991;28;20175;-79
2021/04/12 04:32:27;;;;;;;12.57;10.10;;;;;;;;;;5055262;28;20496;-79
2021/04/12 04:35:12;;;;;;;15.47;9.93;;;;;;;;;;5055194;28;20193;-80
2021/04/12 04:37:44;;;;;;;13.97;9.27;;;;;;;;;;5055469;28;20524;-80
2021/04/12 04:40:13;;;;;;;13.73;10.20;;;;;;;;;;5055212;28;20251;-80
2021/04/12 04:42:57;;;;;;;15.40;10.37;;;;;;;;;;5054921;28;20222;-81
2021/04/12 04:45:41;;;;;;;12.70;9.70;;;;;;;;;;5055254;28;20182;-81
2021/04/12 04:48:12;;;;;;;12.53;9.47;;;;;;;;;;5054588;28;20580;-81
2021/04/12 04:50:43;;;;;;;11.80;9.40;;;;;;;;;;5055094;28;20180;-81
2021/04/12 04:53:11;;;;;;;9.93;8.93;;;;;;;;;;5055083;28;20267;-81
2021/04/12 04:55:51;;;;;;;9.75;8.05;;;;;;;;;;5055076;28;20168;-79
2021/04/12 04:58:22;;;;;;;10.32;8.32;;;;;;;;;;5055356;28;20629;-79
2021/04/12 05:01:05;;;;;;;9.93;8.82;;;;;;;;;;5054605;28;20650;-78
2021/04/12 05:03:30;;;;;;;11.18;9.45;;;;;;;;;;5055308;28;20164;-79
2021/04/12 05:05:56;;;;;;;9.00;8.10;;;;;;;;;;5054680;28;20259;-79
2021/04/12 05:08:27;;;;;;;10.20;9.13;;;;;;;;;;5054610;28;20171;-79
2021/04/12 05:10:52;;;;;;;10.43;8.63;;;;;;;;;;5054654;28;20191;-80
2021/04/12 05:13:26;;;;;;;11.60;8.35;;;;;;;;;;5053934;28;20221;-80
2021/04/12 05:16:07;;;;;;;12.05;8.23;;;;;;;;;;5054822;28;20602;-79
2021/04/12 05:18:44;;;;;;;10.30;8.20;;;;;;;;;;5054694;28;20658;-79
2021/04/12 05:21:12;;;;;;;10.60;8.68;;;;;;;;;;5054358;28;20179;-78
2021/04/12 05:23:56;;;;;;;9.95;8.25;;;;;;;;;;5054868;28;20638;-78
2021/04/12 05:26:39;;;;;;;11.57;8.63;;;;;;;;;;5054581;28;20199;-78
2021/04/12 05:29:13;;;;;;;10.30;8.37;;;;;;;;;;5054888;28;20160;-78
2021/04/12 05:31:38;;;;;;;10.93;8.47;;;;;;;;;;5054035;28;20622;-78
2021/04/12 05:34:13;;;;;;;10.23;8.30;;;;;;;;;;5053773;28;20255;-78
2021/04/12 05:36:57;;;;;;;9.40;7.70;;;;;;;;;;5052913;28;20532;-78
2021/04/12 05:39:31;;;;;;;11.77;8.40;;;;;;;;;;5054089;28;20175;-78
2021/04/12 05:42:16;;;;;;;11.57;8.33;;;;;;;;;;5052645;28;20666;-78
2021/04/12 05:44:41;;;;;;;12.77;9.33;;;;;;;;;;5054269;28;20492;-78
2021/04/12 05:47:30;;;;;;;14.07;9.07;;;;;;;;;;5053911;28;20198;-78
2021/04/12 05:49:55;;;;;;;14.03;9.33;;;;;;;;;;5053960;28;20164;-78
2021/04/12 05:52:39;;;;;;;11.93;8.65;;;;;;;;;;5054115;28;20229;-78
2021/04/12 05:55:23;;;;;;;9.65;8.00;;;;;;;;;;5053901;28;20179;-79
2021/04/12 05:58:04;;;;;;;12.05;7.18;;;;;;;;;;5054058;28;20226;-79
2021/04/12 06:00:36;;;;;;;10.30;7.53;;;;;;;;;;5053827;28;20191;-78
2021/04/12 06:03:20;;;;;;;12.15;9.73;;;;;;;;;;5053741;28;20203;-78
2021/04/12 06:06:04;;;;;;;8.93;8.05;;;;;;;;;;5053968;28;20186;-79
2021/04/12 06:08:47;;;;;;;8.90;7.47;;;;;;;;;;5053377;28;20163;-79
2021/04/12 06:11:32;;;;;;;8.95;7.57;;;;;;;;;;5053649;28;20194;-79
2021/04/12 06:14:11;;;;;;;9.23;7.88;;;;;;;;;;5053763;28;20334;-79
2021/04/12 06:16:47;;;;;;;9.10;7.50;;;;;;;;;;5054025;28;20587;-79
2021/04/12 06:19:31;;;;;;;8.57;7.07;;;;;;;;;;5053061;28;20178;-79
2021/04/12 06:22:00;;;;;;;12.10;8.13;;;;;;;;;;5054201;28;20191;-79
2021/04/12 06:24:48;;;;;;;11.00;8.43;;;;;;;;;;5053518;28;20171;-79
2021/04/12 06:27:23;;;;;;;9.57;8.20;;;;;;;;;;5052715;28;20278;-78
2021/04/12 06:29:57;;;;;;;12.87;8.70;;;;;;;;;;5053867;28;20253;-78
2021/04/12 06:32:33;;;;;;;9.60;8.67;;;;;;;;;;5053578;28;20213;-78
2021/04/12 06:34:58;;;;;;;9.20;8.00;;;;;;;;;;5053490;28;20160;-78
2021/04/12 06:37:42;;;;;;;8.37;7.57;;;;;;;;;;5053387;28;20164;-78
2021/04/12 06:40:25;;;;;;;9.90;7.93;;;;;;;;;;5053069;28;20240;-78
2021/04/12 06:43:08;;;;;;;9.30;8.30;;;;;;;;;;5053095;28;20548;-78
2021/04/12 06:45:53;;;;;;;12.33;8.60;;;;;;;;;;5056072;28;20207;-78
2021/04/12 06:48:36;;;;;;;10.83;8.40;;;;;;;;;;5057195;28;20176;-78
2021/04/12 06:51:04;;;;;;;11.27;9.10;;;;;;;;;;5057123;28;20218;-78
2021/04/12 06:53:35;;;;;;;12.50;10.20;;;;;;;;;;5057054;28;20171;-78
2021/04/12 06:56:21;;;;;;;12.37;10.17;;;;;;;;;;5057051;28;20172;-78
2021/04/12 06:59:16;;;;;;;10.73;8.23;;;;;;;;;;5056616;28;20179;-78
2021/04/12 07:01:59;;;;;;;9.83;8.07;;;;;;;;;;5057209;28;20194;-78
2021/04/12 07:04:34;;;;;;;8.63;7.00;;;;;;;;;;5056789;28;20182;-78
2021/04/12 07:07:02;;;;;;;12.00;7.60;;;;;;;;;;5058399;28;20525;-79
2021/04/12 07:09:43;;;;;;;12.07;8.47;;;;;;;;;;5079454;28;20160;-78
2021/04/12 07:12:37;;;;;;;9.90;7.40;;;;;;;;;;5059214;28;20168;-78
2021/04/12 07:15:10;;;;;;;10.00;7.33;;;;;;;;;;5058055;28;20724;-78
2021/04/12 07:17:51;;;;;;;9.03;7.67;;;;;;;;;;5056861;28;20180;-78
2021/04/12 07:20:16;;;;;;;9.27;7.70;;;;;;;;;;5056672;28;20195;-78
2021/04/12 07:22:55;;;;;;;7.70;7.00;;;;;;;;;;5056262;28;20276;-78
2021/04/12 07:25:41;;;;;;;10.83;7.37;;;;;;;;;;5056571;28;20168;-78
2021/04/12 07:28:21;;;;;;;10.43;7.40;;;;;;;;;;5056349;28;20526;-78
2021/04/12 07:30:58;;;;;;;9.57;7.80;;;;;;;;;;5056870;28;20266;-79
2021/04/12 07:33:42;;;;;;;11.10;7.65;;;;;;;;;;5056080;28;20175;-79
2021/04/12 07:36:10;;;;;;;8.15;7.35;;;;;;;;;;5055992;28;20635;-79
2021/04/12 07:38:54;;;;;;;8.65;6.90;;;;;;;;;;5056060;28;20251;-80
2021/04/12 07:41:38;;;;;;;7.55;6.82;;;;;;;;;;5064358;28;20205;-80
2021/04/12 07:44:12;;;;;;;10.10;6.93;;;;;;;;;;5061729;28;20188;-80
2021/04/12 07:46:56;;;;;;;7.63;6.90;;;;;;;;;;5066742;28;20184;-80
2021/04/12 07:49:40;;;;;;;8.07;7.10;;;;;;;;;;5066283;28;20170;-80
2021/04/12 07:52:05;;;;;;;10.07;7.38;;;;;;;;;;5066255;28;20713;-79
2021/04/12 07:54:49;;;;;;;7.82;7.03;;;;;;;;;;5066030;28;20258;-80
2021/04/12 07:57:40;;;;;;;8.88;7.15;;;;;;;;;;5055899;28;20243;-79
2021/04/12 08:00:05;;;;;;;7.68;6.80;;;;;;;;;;5056796;28;20192;-79
2021/04/12 08:02:33;;;;;;;13.50;7.78;;;;;;;;;;5055453;28;20276;-80
2021/04/12 08:05:17;;;;;;;11.27;8.47;;;;;;;;;;5055802;28;20237;-80
2021/04/12 08:08:02;;;;;;;12.03;7.83;;;;;;;;;;5063213;28;20179;-80
2021/04/12 08:10:40;;;;;;;11.38;7.82;;;;;;;;;;5065679;28;20210;-81
2021/04/12 08:13:05;;;;;;;9.80;7.53;;;;;;;;;;5066286;28;20601;-79
2021/04/12 08:15:49;;;;;;;8.00;7.10;;;;;;;;;;5064379;28;20334;-79
2021/04/12 08:18:27;;;;;;;9.53;8.50;;;;;;;;;;5065053;28;20168;-79
2021/04/12 08:20:52;;;;;;;11.83;9.20;;;;;;;;;;5063813;28;20649;-79
2021/04/12 08:23:36;;;;;;;8.60;7.50;;;;;;;;;;5065363;28;20195;-79
2021/04/12 08:26:10;;;;;;;11.90;7.63;;;;;;;;;;5065558;28;20265;-79
2021/04/12 08:28:38;;;;;;;11.03;7.60;;;;;;;;;;5065705;28;20170;-79
2021/04/12 08:31:23;;;;;;;9.43;7.57;;;;;;;;;;5059227;28;20263;-79
2021/04/12 08:34:07;;;;;;;8.87;7.63;;;;;;;;;;5074960;28;20206;-79
2021/04/12 08:36:50;;;;;;;8.60;7.70;;;;;;;;;;5075476;28;20499;-80
2021/04/12 08:39:28;;;;;;;13.60;8.30;;;;;;;;;;5075712;28;20664;-80
2021/04/12 08:42:06;;;;;;;11.97;8.10;;;;;;;;;;5074675;28;20587;-80
2021/04/12 08:44:34;;;;;;;10.13;7.30;;;;;;;;;;5074949;28;20167;-80
2021/04/12 08:47:08;;;;;;;8.40;6.90;;;;;;;;;;5074150;28;20164;-79
2021/04/12 08:49:46;;;;;;;9.47;6.93;;;;;;;;;;5075256;28;20266;-79
2021/04/12 08:52:29;;;;;;;8.80;7.13;;;;;;;;;;5075208;28;20605;-79
2021/04/12 08:55:07;;;;;;;7.97;6.83;;;;;;;;;;5069953;28;20598;-79
2021/04/12 08:57:44;;;;;;;9.83;7.23;;;;;;;;;;5063516;28;20174;-79
2021/04/12 09:00:22;;;;;;;7.67;6.77;;;;;;;;;;5055043;28;20190;-79
2021/04/12 09:03:06;;;;;;;9.13;6.83;;;;;;;;;;5070278;28;20198;-79
2021/04/12 09:05:40;;;;;;;9.47;8.27;;;;;;;;;;5074404;28;20175;-79
2021/04/12 09:08:11;;;;;;;10.90;8.93;;;;;;;;;;5073441;28;20171;-79
2021/04/12 09:10:57;;;;;;;11.30;8.10;;;;;;;;;;5074063;28;20187;-79
2021/04/12 09:13:25;;;;;;;9.00;7.53;;;;;;;;;;5073814;28;20212;-79
2021/04/12 09:16:09;;;;;;;8.82;7.75;;;;;;;;;;5063806;28;20622;-79
2021/04/12 09:18:38;;;;;;;9.80;7.60;;;;;;;;;;5072073;28;20568;-80
2021/04/12 09:21:19;;;;;;;9.02;6.90;;;;;;;;;;5058778;28;20167;-80
2021/04/12 09:23:47;;;;;;;12.38;8.05;;;;;;;;;;5063140;28;20518;-79
2021/04/12 09:26:15;;;;;;;7.63;6.82;;;;;;;;;;5068419;28;20167;-79
2021/04/12 09:28:59;;;;;;;8.15;6.80;;;;;;;;;;5057234;28;20210;-79
2021/04/12 09:31:45;;;;;;;7.70;6.47;;;;;;;;;;5065919;28;20262;-79
2021/04/12 09:34:29;;;;;;;8.65;6.88;;;;;;;;;;5067743;28;20159;-79
2021/04/12 09:37:14;;;;;;;10.07;6.78;;;;;;;;;;5057499;28;20175;-79
2021/04/12 09:39:42;;;;;;;7.22;6.10;;;;;;;;;;5062884;28;20179;-79
2021/04/12 09:42:26;;;;;;;8.27;6.13;;;;;;;;;;5066087;28;20297;-79
2021/04/12 09:45:10;;;;;;;6.75;6.10;;;;;;;;;;5065149;28;20224;-79
2021/04/12 09:47:54;;;;;;;8.20;6.30;;;;;;;;;;5069107;28;20198;-79
2021/04/12 09:50:35;;;;;;;6.22;5.63;;;;;;;;;;5056456;28;20183;-79
2021/04/12 09:53:24;;;;;;;8.15;5.57;;;;;;;;;;5056280;28;20240;-79
2021/04/12 09:56:09;;;;;;;7.55;6.45;;;;;;;;;;5060267;28;20242;-79
2021/04/12 09:58:54;;;;;;;6.80;4.80;;;;;;;;;;5067845;28;20209;-79
2021/04/12 10:01:43;;;;;;;6.07;5.22;;;;;;;;;;5058839;28;20320;-81
2021/04/12 10:04:27;;;;;;;5.50;4.95;;;;;;;;;;5056186;28;20176;-79
2021/04/12 10:07:10;;;;;;;5.70;5.15;;;;;;;;;;5061162;28;20794;-80
2021/04/12 10:09:41;;;;;;;6.18;5.40;;;;;;;;;;5061706;28;20184;-79
2021/04/12 10:12:19;;;;;;;9.13;5.68;;;;;;;;;;5073191;28;20610;-78
2021/04/12 10:14:46;;;;;;;5.93;5.30;;;;;;;;;;5073047;28;20577;-79
2021/04/12 10:17:14;;;;;;;6.75;6.15;;;;;;;;;;5073277;28;20171;-79
2021/04/12 10:19:54;;;;;;;7.57;6.80;;;;;;;;;;5074288;28;20212;-79
2021/04/12 10:22:40;;;;;;;7.83;5.10;;;;;;;;;;5075243;28;20199;-79
2021/04/12 10:25:07;;;;;;;6.00;5.40;;;;;;;;;;5076940;28;20537;-79
2021/04/12 10:27:45;;;;;;;6.50;5.80;;;;;;;;;;5074907;28;20183;-79
2021/04/12 10:30:12;;;;;;;5.83;5.33;;;;;;;;;;5065655;28;20171;-80
2021/04/12 10:32:49;;;;;;;6.53;5.30;;;;;;;;;;5057070;28;20214;-80
2021/04/12 10:35:18;;;;;;;6.37;5.70;;;;;;;;;;5055395;28;20171;-80
2021/04/12 10:37:44;;;;;;;6.10;5.50;;;;;;;;;;5055370;28;20202;-80
2021/04/12 10:40:09;;;;;;;7.63;5.63;;;;;;;;;;5055441;28;20183;-81
2021/04/12 10:42:45;;;;;;;6.83;5.33;;;;;;;;;;5053955;28;20601;-81
2021/04/12 10:45:16;;;;;;;8.17;5.70;;;;;;;;;;5072861;28;20182;-81
2021/04/12 10:47:45;;;;;;;6.13;5.63;;;;;;;;;;5070348;28;20179;-81
2021/04/12 10:50:19;;;;;;;6.00;5.47;;;;;;;;;;5056296;28;20218;-81
2021/04/12 10:53:03;;;;;;;7.05;6.30;;;;;;;;;;5053765;28;20187;-81
2021/04/12 10:55:36;;;;;;;9.98;6.18;;;;;;;;;;5055652;28;20168;-81
2021/04/12 10:58:05;;;;;;;7.15;6.00;;;;;;;;;;5054751;28;20206;-80
2021/04/12 11:00:57;;;;;;;8.10;5.57;;;;;;;;;;5053434;28;20230;-80
2021/04/12 11:03:42;;;;;;;6.43;5.80;;;;;;;;;;5059266;28;20211;-80
2021/04/12 11:06:08;;;;;;;6.50;5.77;;;;;;;;;;5074500;28;20195;-81
2021/04/12 11:08:42;;;;;;;6.95;6.32;;;;;;;;;;5074029;28;20182;-80
2021/04/12 11:11:16;;;;;;;7.40;6.70;;;;;;;;;;5076037;28;20687;-80
2021/04/12 11:13:44;;;;;;;12.05;7.45;;;;;;;;;;5075900;28;20281;-80
2021/04/12 11:16:10;;;;;;;7.68;6.68;;;;;;;;;;5056307;28;20180;-80
2021/04/12 11:18:43;;;;;;;7.22;6.30;;;;;;;;;;5059008;28;20176;-79
2021/04/12 11:21:11;;;;;;;7.40;6.30;;;;;;;;;;5064377;28;20200;-79
2021/04/12 11:23:48;;;;;;;7.78;6.40;;;;;;;;;;5071616;28;20185;-80
2021/04/12 11:26:23;;;;;;;6.65;5.95;;;;;;;;;;5073506;28;20582;-80
2021/04/12 11:28:53;;;;;;;6.72;6.10;;;;;;;;;;5074680;28;20174;-80
2021/04/12 11:31:27;;;;;;;6.15;5.03;;;;;;;;;;5074220;28;20176;-80
2021/04/12 11:34:12;;;;;;;7.63;4.90;;;;;;;;;;5074568;28;20198;-80
2021/04/12 11:36:38;;;;;;;5.00;4.55;;;;;;;;;;5074561;28;20636;-80
2021/04/12 11:39:06;;;;;;;5.72;4.85;;;;;;;;;;5074230;28;20167;-80
2021/04/12 11:41:34;;;;;;;7.35;4.85;;;;;;;;;;5074270;28;20205;-80
2021/04/12 11:44:01;;;;;;;6.53;4.40;;;;;;;;;;5074467;28;20171;-80
2021/04/12 11:46:38;;;;;;;5.57;4.57;;;;;;;;;;5074500;28;20507;-80
2021/04/12 11:49:12;;;;;;;5.32;4.82;;;;;;;;;;5053051;28;20186;-80
2021/04/12 11:51:43;;;;;;;5.28;4.10;;;;;;;;;;5065208;28;20261;-80
2021/04/12 11:54:09;;;;;;;7.72;5.30;;;;;;;;;;5073535;28;20637;-80
2021/04/12 11:57:07;;;;;;;5.53;4.00;;;;;;;;;;5074342;28;20574;-80
2021/04/12 11:59:39;;;;;;;5.65;4.32;;;;;;;;;;5077296;28;20195;-80
2021/04/12 12:02:11;;;;;;;5.45;3.70;;;;;;;;;;5063532;28;20204;-80
2021/04/12 12:04:45;;;;;;;4.45;3.95;;;;;;;;;;5065488;28;20170;-79
2021/04/12 12:07:16;;;;;;;5.30;3.70;;;;;;;;;;5066083;28;20171;-80
2021/04/12 12:09:41;;;;;;;3.80;3.50;;;;;;;;;;5064855;28;20261;-80
2021/04/12 12:12:25;;;;;;;4.18;3.70;;;;;;;;;;5065724;28;20207;-80
2021/04/12 12:14:50;;;;;;;4.20;3.90;;;;;;;;;;5064784;28;20719;-79
2021/04/12 12:17:24;;;;;;;4.07;3.63;;;;;;;;;;5066538;28;20258;-79
2021/04/12 12:19:51;;;;;;;6.60;4.20;;;;;;;;;;5066441;28;20179;-80
2021/04/12 12:22:26;;;;;;;4.83;3.77;;;;;;;;;;5063825;28;20196;-79
2021/04/12 12:24:58;;;;;;;5.30;3.90;;;;;;;;;;5064012;28;20174;-79
2021/04/12 12:27:27;;;;;;;4.28;3.88;;;;;;;;;;5065931;28;20174;-80
2021/04/12 12:29:55;;;;;;;4.43;3.73;;;;;;;;;;5065504;28;20183;-79
2021/04/12 12:32:41;;;;;;;5.80;4.17;;;;;;;;;;5063773;28;20172;-79
2021/04/12 12:35:13;;;;;;;6.40;4.27;;;;;;;;;;5066066;28;20268;-79
2021/04/12 12:37:41;;;;;;;4.03;3.63;;;;;;;;;;5059196;28;20180;-79
2021/04/12 12:40:12;;;;;;;4.10;3.70;;;;;;;;;;5074406;28;20232;-79
2021/04/12 12:42:46;;;;;;;3.37;3.03;;;;;;;;;;5073843;28;20199;-79
2021/04/12 12:45:14;;;;;;;3.37;2.87;;;;;;;;;;5067218;28;20195;-80
2021/04/12 12:47:44;;;;;;;4.13;2.90;;;;;;;;;;5053273;28;20180;-80
2021/04/12 12:50:14;;;;;;;3.50;3.00;;;;;;;;;;5052841;28;20176;-80
2021/04/12 12:52:51;;;;;;;3.73;3.03;;;;;;;;;;5052883;28;20207;-80
2021/04/12 12:55:20;;;;;;;3.60;2.80;;;;;;;;;;5053107;28;20290;-80
2021/04/12 12:57:47;;;;;;;4.67;3.37;;;;;;;;;;5052323;28;20179;-80
2021/04/12 13:00:21;;;;;;;4.20;3.63;;;;;;;;;;5060136;28;20179;-80
2021/04/12 13:02:48;;;;;;;3.77;3.47;;;;;;;;;;5061368;28;20206;-80
2021/04/12 13:05:23;;;;;;;3.97;3.50;;;;;;;;;;5062061;28;20224;-79
2021/04/12 13:07:49;;;;;;;4.17;3.40;;;;;;;;;;5053128;28;20688;-80
2021/04/12 13:10:33;;;;;;;4.77;4.00;;;;;;;;;;5052527;28;20195;-80
2021/04/12 13:12:58;;;;;;;4.30;3.90;;;;;;;;;;5052479;28;20183;-80
2021/04/12 13:15:33;;;;;;;5.43;4.20;;;;;;;;;;5054824;28;20222;-79
2021/04/12 13:18:05;;;;;;;5.47;3.90;;;;;;;;;;5072554;28;20171;-80
2021/04/12 13:20:47;;;;;;;4.53;3.70;;;;;;;;;;5072447;28;20265;-80
2021/04/12 13:23:15;;;;;;;7.00;4.10;;;;;;;;;;5072430;28;20214;-80
2021/04/12 13:25:41;;;;;;;6.00;3.90;;;;;;;;;;5072442;28;20186;-79
2021/04/12 13:28:13;;;;;;;6.57;4.13;;;;;;;;;;5072400;28;20206;-80
2021/04/12 13:30:41;;;;;;;4.70;3.90;;;;;;;;;;5072423;28;20171;-79
2021/04/12 13:33:10;;;;;;;8.17;5.67;;;;;;;;;;5072282;28;20171;-80
2021/04/12 13:35:37;;;;;;;4.83;4.33;;;;;;;;;;5066556;28;20180;-80
2021/04/12 13:38:05;;;;;;;5.00;4.47;;;;;;;;;;5070688;28;20171;-80
2021/04/12 13:40:34;;;;;;;5.90;4.90;;;;;;;;;;5070376;28;20617;-80
2021/04/12 13:43:02;;;;;;;7.00;5.00;;;;;;;;;;5062609;28;20257;-80
2021/04/12 13:45:33;;;;;;;8.47;5.93;;;;;;;;;;5063152;28;20184;-80
2021/04/12 13:48:02;;;;;;;8.27;5.37;;;;;;;;;;5061373;28;20221;-80
2021/04/12 13:50:33;;;;;;;5.57;4.80;;;;;;;;;;5059733;28;20175;-80
2021/04/12 13:53:03;;;;;;;6.30;5.07;;;;;;;;;;5067300;28;20171;-80
2021/04/12 13:55:31;;;;;;;6.93;4.93;;;;;;;;;;5057136;28;20205;-80
2021/04/12 13:58:01;;;;;;;7.00;5.60;;;;;;;;;;5061127;28;20171;-79
2021/04/12 14:00:32;;;;;;;7.53;5.27;;;;;;;;;;5060748;28;20207;-80
2021/04/12 14:03:14;;;;;;;6.33;4.50;;;;;;;;;;5062210;28;20210;-79
2021/04/12 14:05:41;;;;;;;4.93;4.40;;;;;;;;;;5061059;28;20606;-80
2021/04/12 14:08:06;;;;;;;6.13;4.23;;;;;;;;;;5061323;28;20175;-79
2021/04/12 14:10:38;;;;;;;5.50;4.20;;;;;;;;;;5059830;28;20642;-79
2021/04/12 14:13:06;;;;;;;12.67;6.67;;;;;;;;;;5060869;28;20167;-79
2021/04/12 14:15:43;;;;;;;8.47;6.37;;;;;;;;;;5065795;28;20743;-79
2021/04/12 14:18:11;;;;;;;7.47;5.20;;;;;;;;;;5071777;28;20570;-79
2021/04/12 14:20:42;;;;;;;6.70;5.03;;;;;;;;;;5071501;28;20639;-78
2021/04/12 14:23:23;;;;;;;6.90;5.40;;;;;;;;;;5071445;28;20198;-79
2021/04/12 14:26:04;;;;;;;5.60;5.00;;;;;;;;;;5071875;28;20536;-79
2021/04/12 14:28:32;;;;;;;5.87;5.00;;;;;;;;;;5071841;28;20529;-79
2021/04/12 14:31:04;;;;;;;6.33;4.93;;;;;;;;;;5071005;28;20175;-80
2021/04/12 14:33:34;;;;;;;6.87;4.50;;;;;;;;;;5050339;28;20241;-79
2021/04/12 14:36:20;;;;;;;6.73;4.80;;;;;;;;;;5050534;28;20187;-79
2021/04/12 14:38:47;;;;;;;9.57;6.20;;;;;;;;;;5051254;28;20187;-79
2021/04/12 14:41:16;;;;;;;8.07;5.17;;;;;;;;;;5051522;28;20172;-79
2021/04/12 14:43:51;;;;;;;7.23;5.47;;;;;;;;;;5051674;28;20188;-79
2021/04/12 14:46:19;;;;;;;7.03;4.70;;;;;;;;;;5051331;28;20229;-79
2021/04/12 14:48:48;;;;;;;8.50;5.23;;;;;;;;;;5051294;28;20179;-79
2021/04/12 14:51:18;;;;;;;7.13;5.30;;;;;;;;;;5051543;28;20164;-79
2021/04/12 14:53:48;;;;;;;6.43;4.93;;;;;;;;;;5051772;28;20262;-79
2021/04/12 14:56:19;;;;;;;8.70;5.23;;;;;;;;;;5051248;28;20274;-79
2021/04/12 14:58:57;;;;;;;10.30;5.70;;;;;;;;;;5051815;28;20614;-79
2021/04/12 15:01:22;;;;;;;7.67;6.50;;;;;;;;;;5051689;28;20196;-79
2021/04/12 15:03:50;;;;;;;7.27;6.00;;;;;;;;;;5057123;28;20188;-79
2021/04/12 15:06:22;;;;;;;11.90;6.20;;;;;;;;;;5062744;28;20631;-79
2021/04/12 15:08:53;;;;;;;11.37;5.80;;;;;;;;;;5063528;28;20241;-79
2021/04/12 15:11:27;;;;;;;9.43;5.93;;;;;;;;;;5064311;28;20210;-79
2021/04/12 15:14:01;;;;;;;7.93;5.37;;;;;;;;;;5065585;28;20233;-79
2021/04/12 15:16:26;;;;;;;7.97;5.87;;;;;;;;;;5065365;28;20207;-79
2021/04/12 15:18:57;;;;;;;9.10;6.07;;;;;;;;;;5063446;28;20207;-79
2021/04/12 15:21:27;;;;;;;7.77;6.70;;;;;;;;;;5063172;28;20171;-79
2021/04/12 15:24:04;;;;;;;12.07;6.53;;;;;;;;;;5065066;28;20590;-79